D/T METAR WX W/DIR W/SPE G/SPE TEMP DEWP
25/08/19 15:50 EGNV 251450Z 13006KT 100V160 CAVOK 28/11 Q1018 SE (130°) 6.9mph 28°C 11°C
25/08/19 14:50 EGNV 251350Z 17005KT 120V230 CAVOK 28/10 Q1018 S (170°) 5.8mph 28°C 10°C
25/08/19 14:20 EGNV 251320Z 15008KT 110V180 CAVOK 27/09 Q1018 SSE (150°) 9.2mph 27°C 9°C
25/08/19 13:50 EGNV 251250Z 17009KT 150V210 CAVOK 27/12 Q1018 S (170°) 10.4mph 27°C 12°C
25/08/19 13:20 EGNV 251220Z 18007KT CAVOK 26/13 Q1018 S (180°) 8.1mph 26°C 13°C
25/08/19 12:50 EGNV 251150Z 14005KT 110V190 9000 NSC 26/14 Q1018 SE (140°) 5.8mph 26°C 14°C
25/08/19 12:20 EGNV 251120Z VRB03KT 9000 NSC 25/15 Q1019 N (0°) 3.5mph 25°C 15°C
25/08/19 11:50 EGNV 251050Z VRB02KT 8000 NSC 24/15 Q1019 N (0°) 2.3mph 24°C 15°C
25/08/19 11:20 EGNV 251020Z VRB02KT 7000 NSC 23/15 Q1019 N (0°) 2.3mph 23°C 15°C
25/08/19 10:50 EGNV 250950Z VRB03KT 7000 NSC 22/15 Q1019 N (0°) 3.5mph 22°C 15°C
25/08/19 10:20 EGNV 250920Z VRB02KT 7000 NSC 21/14 Q1019 N (0°) 2.3mph 21°C 14°C
25/08/19 09:50 EGNV 250850Z VRB02KT 9000 NSC 19/14 Q1019 N (0°) 2.3mph 19°C 14°C
25/08/19 08:50 EGNV 250750Z VRB02KT CAVOK 15/12 Q1019 N (0°) 2.3mph 15°C 12°C
25/08/19 08:20 EGNV 250720Z 22003KT CAVOK 13/12 Q1019 SW (220°) 3.5mph 13°C 12°C
25/08/19 07:20 EGNV 250620Z VRB02KT CAVOK 10/10 Q1018 N (0°) 2.3mph 10°C 10°C
25/08/19 06:50 EGNV 250550Z VRB03KT CAVOK 10/09 Q1018 N (0°) 3.5mph 10°C 9°C
25/08/19 06:20 EGNV 250520Z 23003KT CAVOK 10/09 Q1018 SW (230°) 3.5mph 10°C 9°C
25/08/19 05:50 EGNV 250450Z 22003KT CAVOK 10/09 Q1018 SW (220°) 3.5mph 10°C 9°C
24/08/19 21:50 EGNV 242050Z 15006KT CAVOK 17/11 Q1017 SSE (150°) 6.9mph 17°C 11°C
24/08/19 21:20 EGNV 242020Z 13007KT CAVOK 17/10 Q1017 SE (130°) 8.1mph 17°C 10°C
24/08/19 20:50 EGNV 241950Z 12005KT CAVOK 19/10 Q1017 ESE (120°) 5.8mph 19°C 10°C
24/08/19 20:20 EGNV 241920Z 11004KT CAVOK 19/10 Q1017 ESE (110°) 4.6mph 19°C 10°C
24/08/19 19:20 EGNV 241820Z 21002KT CAVOK 23/10 Q1017 SSW (210°) 2.3mph 23°C 10°C
24/08/19 18:20 EGNV 241720Z 21005KT CAVOK 25/09 Q1017 SSW (210°) 5.8mph 25°C 9°C
24/08/19 17:50 EGNV 241650Z 19009KT CAVOK 25/07 Q1017 S (190°) 10.4mph 25°C 7°C
24/08/19 17:20 EGNV 241620Z 17010KT 150V210 CAVOK 25/07 Q1017 S (170°) 11.5mph 25°C 7°C
24/08/19 16:50 EGNV 241550Z 18010KT 140V210 CAVOK 25/09 Q1017 S (180°) 11.5mph 25°C 9°C
24/08/19 16:20 EGNV 241520Z 17012KT CAVOK 26/08 Q1017 S (170°) 13.8mph 26°C 8°C
24/08/19 15:50 EGNV 241450Z 19013KT CAVOK 25/07 Q1017 S (190°) 15.0mph 25°C 7°C
24/08/19 15:20 EGNV 241420Z 18011KT CAVOK 25/10 Q1018 S (180°) 12.7mph 25°C 10°C
24/08/19 14:50 EGNV 241350Z 17011KT 140V200 CAVOK 26/11 Q1018 S (170°) 12.7mph 26°C 11°C
24/08/19 14:20 EGNV 241320Z 16010KT 130V190 CAVOK 25/12 Q1018 SSE (160°) 11.5mph 25°C 12°C
24/08/19 13:50 EGNV 241250Z 18012KT CAVOK 25/10 Q1018 S (180°) 13.8mph 25°C 10°C
24/08/19 13:20 EGNV 241220Z 18011KT CAVOK 24/12 Q1019 S (180°) 12.7mph 24°C 12°C
24/08/19 12:50 EGNV 241150Z 16012KT CAVOK 24/13 Q1019 SSE (160°) 13.8mph 24°C 13°C
24/08/19 12:20 EGNV 241120Z 18010KT 150V220 9999 FEW040 23/15 Q1019 S (180°) 11.5mph 23°C 15°C
24/08/19 11:50 EGNV 241050Z 18011KT 150V210 9999 FEW040 23/14 Q1019 S (180°) 12.7mph 23°C 14°C
24/08/19 10:50 EGNV 240950Z 23005KT 9999 FEW040 20/16 Q1019 SW (230°) 5.8mph 20°C 16°C
24/08/19 10:20 EGNV 240920Z VRB03KT CAVOK 20/16 Q1019 N (0°) 3.5mph 20°C 16°C
24/08/19 09:20 EGNV 240820Z 20004KT 160V220 9000 NSC 18/16 Q1020 SSW (200°) 4.6mph 18°C 16°C
24/08/19 08:50 EGNV 240750Z 24005KT 9000 VCFG NSC 17/15 Q1020 VCFG WSW (240°) 5.8mph 17°C 15°C
24/08/19 08:20 EGNV 240720Z 22005KT 9000 VCFG NSC 17/15 Q1020 VCFG SW (220°) 5.8mph 17°C 15°C
24/08/19 07:20 EGNV 240620Z 27003KT 9000 MIFG NSC 15/14 Q1020 MIFG W (270°) 3.5mph 15°C 14°C
24/08/19 06:50 EGNV 240550Z VRB01KT 9000 MIFG NSC 13/12 Q1020 MIFG N (0°) 1.2mph 13°C 12°C
24/08/19 06:20 EGNV 240520Z VRB02KT 9000 MIFG NSC 13/13 Q1020 MIFG N (0°) 2.3mph 13°C 13°C
24/08/19 05:50 EGNV 240450Z VRB02KT 9000 MIFG NSC 14/13 Q1020 MIFG N (0°) 2.3mph 14°C 13°C
23/08/19 21:50 EGNV 232050Z VRB02KT CAVOK 18/14 Q1020 N (0°) 2.3mph 18°C 14°C
23/08/19 21:20 EGNV 232020Z VRB01KT CAVOK 18/14 Q1021 N (0°) 1.2mph 18°C 14°C